Time;durP1;ratioP1;P1;durP2;ratioP2;P2;SDS_P1;SDS_P2;PMS_P1;PMS_P2;Temp;Humidity;BMP_temperature;BMP_pressure;BME280_temperature;BME280_humidity;BME280_pressure;Samples;Min_cycle;Max_cycle;Signal;HPM_P1;HPM_P2
2021/10/20 00:00:04;;;;;;;22.10;12.50;;;;;;;10.80;62.96;99439.16;236585;1193;138709;-60
2021/10/20 00:05:34;;;;;;;21.40;12.80;;;;;;;10.85;63.22;99427.52;236109;1193;139880;-60
2021/10/20 00:10:37;;;;;;;22.70;13.30;;;;;;;10.93;63.26;99427.62;236440;1194;139291;-60
2021/10/20 00:15:40;;;;;;;21.50;12.50;;;;;;;10.99;63.27;99422.27;236441;1193;138476;-64
2021/10/20 00:20:44;;;;;;;28.30;13.50;;;;;;;11.05;63.43;99416.77;236453;1193;138352;-61
2021/10/20 00:25:47;;;;;;;21.50;12.20;;;;;;;11.09;63.23;99411.91;236538;1193;140922;-60
2021/10/20 00:30:50;;;;;;;16.90;10.80;;;;;;;11.15;63.37;99401.09;235737;1193;138330;-60
2021/10/20 00:35:53;;;;;;;22.00;11.80;;;;;;;11.25;63.40;99396.79;236566;1193;138822;-63
2021/10/20 00:40:57;;;;;;;15.80;9.90;;;;;;;11.29;63.19;99394.63;236432;1193;139226;-64
2021/10/20 00:46:01;;;;;;;14.40;9.30;;;;;;;11.32;62.75;99394.08;236409;1193;138553;-66
2021/10/20 00:51:04;;;;;;;14.30;8.20;;;;;;;11.38;62.58;99390.16;236705;1193;138725;-61
2021/10/20 00:56:07;;;;;;;12.80;7.20;;;;;;;11.44;62.49;99386.73;236728;1192;138450;-63
2021/10/20 01:01:10;;;;;;;12.20;7.00;;;;;;;11.54;62.24;99384.21;236657;1192;139089;-62
2021/10/20 01:06:16;;;;;;;13.90;6.40;;;;;;;11.65;62.05;99377.17;236529;1193;138226;-61
2021/10/20 01:11:20;;;;;;;9.90;6.10;;;;;;;11.74;62.02;99358.98;236580;1193;138459;-61
2021/10/20 01:16:23;;;;;;;10.70;6.30;;;;;;;11.83;61.73;99349.06;236632;1193;138895;-62
2021/10/20 01:21:26;;;;;;;9.20;5.60;;;;;;;11.91;61.67;99338.08;236132;1195;138584;-61
2021/10/20 01:26:31;;;;;;;7.70;5.10;;;;;;;11.98;61.59;99334.42;236626;1193;138327;-61
2021/10/20 01:31:34;;;;;;;7.50;4.40;;;;;;;12.03;61.36;99335.88;236717;1193;139012;-59
2021/10/20 01:36:37;;;;;;;8.70;5.20;;;;;;;12.09;61.20;99346.15;236570;1193;138290;-57
2021/10/20 01:41:41;;;;;;;7.90;5.00;;;;;;;12.16;61.36;99347.70;236660;1193;138687;-61
2021/10/20 01:46:44;;;;;;;7.40;4.60;;;;;;;12.22;61.47;99346.45;236597;1193;139403;-59
2021/10/20 01:51:47;;;;;;;7.80;4.90;;;;;;;12.24;61.36;99335.04;236763;1193;138563;-60
2021/10/20 01:56:50;;;;;;;8.10;4.50;;;;;;;12.28;61.39;99326.12;236623;1193;139663;-61
2021/10/20 02:01:53;;;;;;;8.40;4.80;;;;;;;12.34;61.40;99323.41;236713;1193;139170;-60
2021/10/20 02:06:56;;;;;;;7.90;4.40;;;;;;;12.38;61.25;99316.73;236525;1193;139019;-58
2021/10/20 02:11:59;;;;;;;11.70;5.30;;;;;;;12.43;61.32;99309.33;236637;1193;139204;-58
2021/10/20 02:17:03;;;;;;;7.90;5.20;;;;;;;12.44;61.19;99305.70;236520;1193;138482;-59
2021/10/20 02:22:07;;;;;;;8.50;5.00;;;;;;;12.40;61.25;99302.34;236497;1194;138482;-61
2021/10/20 02:27:14;;;;;;;8.90;5.00;;;;;;;12.35;61.24;99301.46;236000;1193;138057;-60
2021/10/20 02:32:17;;;;;;;7.60;4.80;;;;;;;12.31;61.43;99291.57;236558;1193;139329;-57
2021/10/20 02:37:20;;;;;;;9.70;5.20;;;;;;;12.31;61.83;99286.61;236519;1193;139235;-58
2021/10/20 02:42:23;;;;;;;13.30;5.40;;;;;;;12.31;61.64;99282.15;236421;1194;139135;-57
2021/10/20 02:47:26;;;;;;;11.50;4.60;;;;;;;12.29;61.57;99276.23;236458;1193;138502;-58
2021/10/20 02:52:29;;;;;;;14.10;5.20;;;;;;;12.27;61.69;99267.48;236727;1193;138713;-58
2021/10/20 02:57:32;;;;;;;19.10;5.70;;;;;;;12.26;61.92;99271.64;235951;1193;138812;-58
2021/10/20 03:02:35;;;;;;;16.30;5.00;;;;;;;12.21;61.98;99277.47;236612;1193;138071;-61
2021/10/20 03:07:38;;;;;;;11.10;4.70;;;;;;;12.17;61.79;99275.59;236769;1193;138799;-58
2021/10/20 03:12:42;;;;;;;9.40;4.50;;;;;;;12.16;62.07;99269.44;236418;1193;139589;-61
2021/10/20 03:17:45;;;;;;;8.90;4.80;;;;;;;12.16;61.89;99266.78;236624;1193;139045;-60
2021/10/20 03:22:48;;;;;;;10.20;4.80;;;;;;;12.17;62.11;99267.09;236678;1193;139447;-60
2021/10/20 03:27:51;;;;;;;15.00;5.60;;;;;;;12.17;62.29;99257.65;236714;1193;138862;-59
2021/10/20 03:32:54;;;;;;;19.60;5.30;;;;;;;12.15;62.19;99256.88;236504;1193;138549;-60
2021/10/20 03:37:57;;;;;;;11.60;4.80;;;;;;;12.13;62.34;99250.60;236532;1193;138403;-62
2021/10/20 03:43:02;;;;;;;13.50;5.40;;;;;;;12.12;62.43;99249.61;236137;1193;249536;-62
2021/10/20 03:48:05;;;;;;;14.60;5.30;;;;;;;12.11;62.69;99252.54;236423;1193;138791;-61
2021/10/20 03:53:08;;;;;;;13.90;4.80;;;;;;;12.10;62.89;99247.05;236609;1193;138393;-63
2021/10/20 03:58:11;;;;;;;11.80;4.60;;;;;;;12.09;62.94;99242.47;236760;1193;139920;-61
2021/10/20 04:03:16;;;;;;;10.20;4.70;;;;;;;12.12;62.94;99238.24;236834;1193;138944;-61
2021/10/20 04:08:19;;;;;;;13.10;5.30;;;;;;;12.17;62.99;99238.39;236648;1192;138811;-62
2021/10/20 04:13:22;;;;;;;21.50;6.20;;;;;;;12.23;63.06;99233.71;236625;1193;138663;-60
2021/10/20 04:18:26;;;;;;;12.60;5.30;;;;;;;12.29;63.12;99232.27;236462;1193;138581;-62
2021/10/20 04:23:29;;;;;;;7.70;4.50;;;;;;;12.37;63.29;99218.23;236725;1193;138554;-61
2021/10/20 04:28:32;;;;;;;13.90;5.00;;;;;;;12.59;62.97;99209.85;236716;1193;138744;-60
2021/10/20 04:33:35;;;;;;;11.60;4.80;;;;;;;12.63;62.47;99197.77;236621;1193;139827;-63
2021/10/20 04:38:38;;;;;;;10.80;4.80;;;;;;;12.69;62.32;99191.51;236634;1193;138815;-60
2021/10/20 04:43:43;;;;;;;11.80;5.20;;;;;;;12.72;61.89;99195.55;236609;1187;138915;-60
2021/10/20 04:48:46;;;;;;;17.00;5.30;;;;;;;12.74;61.92;99189.76;236736;1192;139501;-60
2021/10/20 04:53:49;;;;;;;13.30;5.10;;;;;;;12.80;62.24;99182.80;236672;1193;138655;-59
2021/10/20 04:58:52;;;;;;;50.10;8.00;;;;;;;13.05;63.37;99174.92;236732;1192;138289;-61
2021/10/20 05:03:55;;;;;;;13.00;6.00;;;;;;;14.36;65.10;99170.08;236903;1193;140051;-60
2021/10/20 05:08:58;;;;;;;12.60;5.10;;;;;;;14.48;61.75;99167.96;236595;1191;139657;-62
2021/10/20 05:14:02;;;;;;;172.10;14.40;;;;;;;14.16;60.60;99166.41;236518;1193;138475;-58
2021/10/20 05:19:05;;;;;;;30.50;7.00;;;;;;;14.50;62.79;99164.55;236658;1193;139451;-59
2021/10/20 05:24:08;;;;;;;18.20;6.70;;;;;;;14.52;60.94;99150.84;236495;1193;138212;-60
2021/10/20 05:29:11;;;;;;;142.40;85.00;;;;;;;14.19;60.42;99156.94;236556;1193;138711;-58
2021/10/20 05:34:14;;;;;;;24.10;7.10;;;;;;;13.97;60.87;99146.43;236595;1193;138819;-54
2021/10/20 05:39:17;;;;;;;31.60;7.10;;;;;;;13.74;60.84;99146.35;236575;1193;139896;-57
2021/10/20 05:44:20;;;;;;;22.80;6.00;;;;;;;13.55;61.04;99148.63;236429;1193;139515;-58
2021/10/20 05:49:23;;;;;;;16.90;6.00;;;;;;;13.40;61.52;99151.84;236488;1193;138946;-57
2021/10/20 05:54:27;;;;;;;17.10;6.40;;;;;;;13.32;61.59;99147.81;236508;1193;138745;-55
2021/10/20 05:59:30;;;;;;;28.60;12.60;;;;;;;13.29;61.98;99146.23;236569;1192;138425;-57
2021/10/20 06:04:33;;;;;;;18.10;7.00;;;;;;;13.30;62.15;99140.95;236522;1195;138910;-55
2021/10/20 06:09:36;;;;;;;283.20;203.50;;;;;;;13.32;62.14;99143.32;236534;1193;139811;-55
2021/10/20 06:14:39;;;;;;;24.90;9.50;;;;;;;13.47;62.53;99145.98;235866;1193;140768;-60
2021/10/20 06:19:42;;;;;;;20.50;7.50;;;;;;;13.63;62.46;99140.73;236736;1193;139908;-58
2021/10/20 06:24:45;;;;;;;14.20;7.00;;;;;;;13.76;62.74;99134.59;236431;1193;138926;-58
2021/10/20 06:29:49;;;;;;;18.80;7.60;;;;;;;13.88;62.30;99139.23;235775;1193;140903;-57
2021/10/20 06:34:53;;;;;;;15.70;7.30;;;;;;;14.07;62.65;99130.15;236770;1193;139818;-55
2021/10/20 06:40:00;;;;;;;20.00;7.50;;;;;;;14.49;63.02;99129.47;236367;1193;139293;-59
2021/10/20 06:45:04;;;;;;;13.60;6.30;;;;;;;14.59;62.15;99135.17;236333;1195;138668;-62
2021/10/20 06:50:07;;;;;;;27.20;8.20;;;;;;;14.63;62.16;99134.32;236337;1193;138566;-60
2021/10/20 06:55:11;;;;;;;14.60;6.70;;;;;;;14.66;61.86;99129.79;236505;1193;138885;-58
2021/10/20 07:00:16;;;;;;;28.10;7.60;;;;;;;14.67;61.93;99125.64;236586;1193;138676;-63
2021/10/20 07:05:19;;;;;;;132.90;87.20;;;;;;;14.74;61.99;99114.70;236567;1193;138373;-58
2021/10/20 07:10:22;;;;;;;18.70;9.70;;;;;;;14.83;62.09;99116.50;236731;1193;139620;-60
2021/10/20 07:15:25;;;;;;;18.40;7.10;;;;;;;14.88;62.00;99122.38;236318;1193;138894;-60
2021/10/20 07:20:29;;;;;;;15.40;6.90;;;;;;;14.94;61.96;99113.14;236433;1193;139499;-61
2021/10/20 07:25:32;;;;;;;12.60;6.70;;;;;;;15.02;61.88;99104.98;236615;1193;138779;-59
2021/10/20 07:30:37;;;;;;;14.10;7.00;;;;;;;15.13;62.13;99110.54;236424;1193;138705;-62
2021/10/20 07:35:40;;;;;;;13.60;6.10;;;;;;;15.25;62.31;99112.31;236557;1193;138913;-61
2021/10/20 07:40:43;;;;;;;9.40;4.10;;;;;;;15.37;62.38;99109.33;236508;1193;138732;-61
2021/10/20 07:45:46;;;;;;;7.40;3.70;;;;;;;15.50;62.15;99106.84;236633;1193;138687;-62
2021/10/20 07:50:49;;;;;;;7.90;4.00;;;;;;;15.67;62.33;99105.70;236626;1193;141045;-63
2021/10/20 07:55:52;;;;;;;7.60;3.50;;;;;;;15.82;62.14;99100.38;236473;1193;139026;-61
2021/10/20 08:00:55;;;;;;;17.60;4.90;;;;;;;15.96;62.30;99097.61;236590;1193;138738;-60
2021/10/20 08:05:59;;;;;;;17.30;3.20;;;;;;;16.21;62.54;99097.48;235924;1193;140021;-61
2021/10/20 08:11:02;;;;;;;15.20;4.00;;;;;;;16.39;62.46;99092.16;235654;1195;138717;-60
2021/10/20 08:16:05;;;;;;;14.70;3.20;;;;;;;16.66;62.56;99088.38;236424;1193;140564;-60
2021/10/20 08:21:08;;;;;;;296.50;182.40;;;;;;;16.93;62.32;99083.92;236176;1193;139331;-58
2021/10/20 08:26:11;;;;;;;12.80;6.50;;;;;;;17.12;62.11;99080.45;236477;1193;139242;-58
2021/10/20 08:31:15;;;;;;;12.50;6.00;;;;;;;17.27;61.82;99070.55;236646;1193;138733;-59
2021/10/20 08:36:18;;;;;;;6.20;3.30;;;;;;;17.39;61.67;99060.80;236499;1193;140907;-63
2021/10/20 08:41:23;;;;;;;5.90;2.90;;;;;;;17.48;61.42;99059.64;236529;1193;139744;-62
2021/10/20 08:46:26;;;;;;;5.40;3.20;;;;;;;17.52;61.23;99057.15;236639;1193;139483;-61
2021/10/20 08:51:31;;;;;;;4.00;2.60;;;;;;;17.61;61.38;99061.38;236368;1193;140719;-62
2021/10/20 08:56:35;;;;;;;5.20;2.70;;;;;;;17.67;61.03;99068.30;236615;1192;138164;-62
2021/10/20 09:01:39;;;;;;;6.40;3.30;;;;;;;17.76;61.03;99060.88;236515;1193;138174;-62
2021/10/20 09:06:43;;;;;;;11.10;2.60;;;;;;;17.86;60.84;99056.26;236476;1193;138519;-61
2021/10/20 09:11:46;;;;;;;3.40;2.40;;;;;;;17.90;60.75;99047.64;236777;1192;138784;-61
2021/10/20 09:16:49;;;;;;;6.60;2.50;;;;;;;17.96;60.59;99050.34;236646;1193;138964;-59
2021/10/20 09:22:02;;;;;;;251.90;172.60;;;;;;;18.01;60.51;99046.92;236586;1193;138835;-60
2021/10/20 09:27:21;;;;;;;23.00;15.40;;;;;;;18.09;60.52;99035.42;236493;1193;139195;-61
2021/10/20 09:32:24;;;;;;;8.30;4.00;;;;;;;18.21;60.55;99037.90;236175;1193;138970;-62
2021/10/20 09:37:28;;;;;;;8.10;3.10;;;;;;;18.30;60.29;99027.05;236685;1192;138859;-58
2021/10/20 09:42:45;;;;;;;2.80;2.50;;;;;;;18.35;60.12;99020.07;236556;1193;138008;-60
2021/10/20 09:47:49;;;;;;;7.30;2.80;;;;;;;18.39;59.73;99017.68;236282;1193;138291;-60
2021/10/20 09:53:13;;;;;;;4.80;2.40;;;;;;;18.45;59.62;99007.99;236461;1193;138195;-60
2021/10/20 09:58:17;;;;;;;4.20;2.80;;;;;;;18.51;59.36;99008.17;236634;1193;138928;-58
2021/10/20 10:03:21;;;;;;;5.20;2.70;;;;;;;18.58;59.48;99005.52;236188;1193;138626;-61
2021/10/20 10:08:23;;;;;;;10.10;2.80;;;;;;;18.64;59.36;98998.62;236587;1193;138115;-59
2021/10/20 10:13:30;;;;;;;4.90;2.60;;;;;;;18.72;59.32;98988.00;236540;1193;138640;-60
2021/10/20 10:18:39;;;;;;;4.20;2.90;;;;;;;18.80;59.07;98979.89;236470;1193;138806;-60
2021/10/20 10:23:54;;;;;;;6.00;3.00;;;;;;;18.91;58.87;98967.86;236095;1193;138447;-59
2021/10/20 10:29:13;;;;;;;4.00;2.70;;;;;;;18.97;58.61;98966.15;236584;1193;138557;-59
2021/10/20 10:34:18;;;;;;;5.20;2.70;;;;;;;19.04;58.58;98962.00;236578;1193;138936;-59
2021/10/20 10:39:22;;;;;;;8.70;3.20;;;;;;;19.17;58.55;98947.30;236483;1193;139508;-59
2021/10/20 10:44:28;;;;;;;23.20;13.40;;;;;;;19.32;58.90;98937.90;236527;1193;138572;-60
2021/10/20 10:49:39;;;;;;;10.40;3.70;;;;;;;19.46;58.62;98941.68;236324;1195;139542;-58
2021/10/20 10:55:19;;;;;;;6.40;3.10;;;;;;;19.54;58.31;98931.20;236533;1193;138579;-57
2021/10/20 11:00:22;;;;;;;11.50;3.20;;;;;;;19.58;58.02;98916.66;236530;1192;138258;-61
2021/10/20 11:05:31;;;;;;;8.70;2.90;;;;;;;19.64;57.80;98908.94;236195;1193;138573;-59
2021/10/20 11:10:36;;;;;;;6.50;2.70;;;;;;;19.69;57.73;98903.23;236606;1193;138905;-56
2021/10/20 11:15:40;;;;;;;6.90;2.70;;;;;;;19.76;57.57;98882.34;236319;1193;138534;-58
2021/10/20 11:20:43;;;;;;;4.80;2.50;;;;;;;19.82;57.34;98877.21;236341;1192;138046;-59
2021/10/20 11:25:48;;;;;;;4.30;2.60;;;;;;;19.88;57.16;98863.45;236200;1193;138492;-58
2021/10/20 11:30:51;;;;;;;35.60;21.80;;;;;;;19.94;56.98;98854.88;236532;1193;138709;-60
2021/10/20 11:35:56;;;;;;;5.50;2.80;;;;;;;20.01;56.91;98848.44;236311;1193;139067;-59
2021/10/20 11:40:59;;;;;;;6.50;2.80;;;;;;;20.07;56.46;98835.65;236531;1193;138264;-57
2021/10/20 11:46:02;;;;;;;6.80;2.90;;;;;;;20.15;56.18;98821.77;236726;1193;138473;-61
2021/10/20 11:51:05;;;;;;;8.70;2.70;;;;;;;20.24;56.04;98817.21;236379;1193;138655;-60
2021/10/20 11:56:11;;;;;;;5.00;2.40;;;;;;;20.31;55.80;98808.09;236272;1193;139254;-61
2021/10/20 12:01:15;;;;;;;4.70;2.30;;;;;;;20.39;55.69;98805.09;236564;1193;138914;-61
2021/10/20 12:06:20;;;;;;;11.60;6.00;;;;;;;20.46;55.40;98800.17;236599;1193;138656;-59
2021/10/20 12:11:23;;;;;;;7.70;3.50;;;;;;;20.55;55.33;98791.03;236690;1192;138436;-63
2021/10/20 12:16:26;;;;;;;7.30;2.90;;;;;;;20.63;55.05;98782.81;236799;1193;138286;-62
2021/10/20 12:21:31;;;;;;;7.10;2.60;;;;;;;20.69;54.84;98779.23;236552;1193;138873;-58
2021/10/20 12:26:37;;;;;;;5.30;2.60;;;;;;;20.74;54.62;98773.06;236554;1193;137910;-61
2021/10/20 12:31:40;;;;;;;;;;;;;;;20.78;54.29;98768.30;236474;1193;139738;-65
2021/10/20 12:36:46;;;;;;;126.50;86.20;;;;;;;20.82;54.08;98756.78;236523;1193;124565;-59
2021/10/20 12:41:49;;;;;;;8.70;4.10;;;;;;;20.88;53.94;98746.12;236441;1193;138752;-61
2021/10/20 12:46:52;;;;;;;5.70;2.40;;;;;;;20.99;53.53;98734.26;236430;1193;138756;-62
2021/10/20 12:51:55;;;;;;;46.60;35.60;;;;;;;21.10;53.25;98719.38;236567;1193;138772;-62
2021/10/20 12:57:17;;;;;;;7.30;2.20;;;;;;;21.18;53.04;98719.14;236495;1193;138964;-61
2021/10/20 13:02:23;;;;;;;6.40;2.20;;;;;;;21.26;52.60;98706.95;236295;1193;139148;-62
2021/10/20 13:07:28;;;;;;;4.50;2.20;;;;;;;21.35;52.06;98704.66;236505;1193;138847;-60
2021/10/20 13:12:32;;;;;;;4.90;2.30;;;;;;;21.42;51.73;98697.52;236474;1193;138750;-63
2021/10/20 13:17:38;;;;;;;4.50;2.30;;;;;;;21.48;51.54;98694.55;236503;1193;138788;-63
2021/10/20 13:22:43;;;;;;;3.00;2.40;;;;;;;21.52;51.35;98688.38;236369;1194;138749;-62
2021/10/20 13:27:46;;;;;;;5.00;2.50;;;;;;;21.52;51.22;98684.02;236225;1193;138457;-59
2021/10/20 13:32:49;;;;;;;3.50;2.20;;;;;;;21.52;51.20;98678.13;236575;1192;138306;-61
2021/10/20 13:37:52;;;;;;;7.40;2.60;;;;;;;21.48;51.21;98666.69;236543;1193;138324;-61
2021/10/20 13:42:56;;;;;;;6.30;2.70;;;;;;;21.44;51.10;98659.59;236462;1193;138888;-61
2021/10/20 13:47:59;;;;;;;5.80;2.60;;;;;;;21.40;51.05;98655.59;236365;1193;138414;-60
2021/10/20 13:53:03;;;;;;;10.20;4.00;;;;;;;21.35;51.01;98660.63;236629;1193;138327;-61
2021/10/20 13:58:08;;;;;;;16.10;2.90;;;;;;;21.31;50.66;98657.49;236624;1193;139829;-61
2021/10/20 14:03:11;;;;;;;8.00;2.70;;;;;;;21.24;50.16;98647.91;236391;1193;139770;-61
2021/10/20 14:08:15;;;;;;;6.40;2.80;;;;;;;21.20;49.83;98631.64;236131;1193;138770;-60
2021/10/20 14:13:20;;;;;;;5.70;2.70;;;;;;;21.14;49.56;98622.02;235894;1193;137912;-62
2021/10/20 14:18:27;;;;;;;6.30;3.00;;;;;;;21.08;49.56;98619.26;236345;1193;138849;-64
2021/10/20 14:23:31;;;;;;;318.50;224.90;;;;;;;21.02;49.44;98615.83;236440;1193;139731;-60
2021/10/20 14:28:34;;;;;;;21.60;9.60;;;;;;;21.00;49.31;98606.26;236572;1193;138773;-61
2021/10/20 14:33:38;;;;;;;20.80;5.10;;;;;;;20.99;49.07;98602.64;236498;1193;139482;-63
2021/10/20 14:38:41;;;;;;;8.80;3.80;;;;;;;20.97;49.09;98606.30;236535;1193;138890;-62
2021/10/20 14:43:45;;;;;;;7.30;2.70;;;;;;;20.95;48.98;98606.34;235974;1193;138167;-59
2021/10/20 14:48:52;;;;;;;9.30;3.10;;;;;;;20.91;48.81;98600.13;236201;1193;139666;-61
2021/10/20 14:53:55;;;;;;;7.70;3.60;;;;;;;20.88;48.83;98593.93;235919;1177;138396;-61
2021/10/20 14:58:58;;;;;;;10.90;3.30;;;;;;;20.86;48.86;98590.93;236651;1193;139626;-64
2021/10/20 15:04:02;;;;;;;10.00;5.10;;;;;;;20.83;48.59;98586.20;236305;1192;138575;-66
2021/10/20 15:09:06;;;;;;;6.00;2.90;;;;;;;20.78;48.39;98575.80;236682;1193;141184;-63
2021/10/20 15:14:09;;;;;;;8.10;3.00;;;;;;;20.73;48.10;98579.18;236518;1193;138284;-64
2021/10/20 15:24:24;;;;;;;10.20;3.80;;;;;;;20.63;47.97;98574.87;236429;1193;139125;-64
2021/10/20 15:29:27;;;;;;;12.30;4.30;;;;;;;20.58;47.91;98561.42;236693;1193;138908;-62
2021/10/20 15:34:31;;;;;;;12.30;3.90;;;;;;;20.52;47.85;98553.38;236678;1193;139341;-62
2021/10/20 15:39:40;;;;;;;5.70;3.20;;;;;;;20.49;47.89;98540.35;236489;1193;138523;-62
2021/10/20 15:44:46;;;;;;;90.30;68.10;;;;;;;20.46;47.80;98536.80;236537;1193;138646;-64
2021/10/20 15:49:50;;;;;;;8.70;5.60;;;;;;;20.43;47.79;98537.34;236446;1187;138503;-65
2021/10/20 15:54:54;;;;;;;10.10;5.80;;;;;;;20.40;47.77;98536.86;236325;1193;139184;-63
2021/10/20 15:59:59;;;;;;;7.00;3.80;;;;;;;20.36;47.61;98537.28;236519;1193;138110;-61
2021/10/20 16:05:13;;;;;;;41.80;29.70;;;;;;;20.30;47.55;98531.47;236000;1193;138770;-63
2021/10/20 16:10:16;;;;;;;7.80;4.20;;;;;;;20.23;47.10;98524.02;235920;1193;140992;-60
2021/10/20 16:15:19;;;;;;;7.30;3.80;;;;;;;20.13;47.01;98520.80;236572;1193;138228;-63
2021/10/20 16:20:22;;;;;;;7.00;3.30;;;;;;;20.01;46.89;98515.70;236529;1193;138614;-62
2021/10/20 16:25:25;;;;;;;4.80;3.00;;;;;;;19.92;46.76;98514.81;236507;1190;138999;-62
2021/10/20 16:30:29;;;;;;;6.20;2.90;;;;;;;19.83;46.86;98511.20;236470;1193;138392;-61
2021/10/20 16:35:34;;;;;;;4.20;2.90;;;;;;;19.78;46.81;98507.88;236570;1193;139037;-60
2021/10/20 16:40:38;;;;;;;4.80;2.90;;;;;;;19.72;46.63;98506.65;236683;1193;139506;-62
2021/10/20 16:45:42;;;;;;;6.70;4.00;;;;;;;19.69;46.58;98503.48;236589;1193;137921;-62
2021/10/20 16:50:47;;;;;;;234.20;142.60;;;;;;;19.61;45.95;98511.84;236491;1195;138250;-59
2021/10/20 16:55:50;;;;;;;13.00;6.00;;;;;;;19.51;45.70;98512.74;236653;1193;138917;-62
2021/10/20 17:00:53;;;;;;;6.10;3.50;;;;;;;19.41;45.18;98510.75;236145;1193;139487;-60
2021/10/20 17:05:56;;;;;;;5.90;3.30;;;;;;;19.24;44.87;98495.14;236537;1193;138711;-60
2021/10/20 17:10:59;;;;;;;4.00;2.80;;;;;;;19.11;44.77;98482.08;236249;1193;137966;-61
2021/10/20 17:16:03;;;;;;;6.70;3.10;;;;;;;19.01;44.76;98480.28;236734;1193;138644;-62
2021/10/20 17:21:07;;;;;;;12.20;3.50;;;;;;;18.92;44.56;98468.80;236836;1193;139046;-63
2021/10/20 17:26:10;;;;;;;6.90;2.80;;;;;;;18.87;44.36;98470.64;236682;1192;138752;-62
2021/10/20 17:31:14;;;;;;;7.10;2.90;;;;;;;18.83;44.33;98475.55;236208;1193;138943;-62
2021/10/20 17:36:17;;;;;;;5.60;2.80;;;;;;;18.82;44.09;98471.72;236682;1192;138478;-60
2021/10/20 17:41:21;;;;;;;7.00;3.00;;;;;;;18.82;44.08;98465.79;236228;1193;139823;-61
2021/10/20 17:46:24;;;;;;;7.20;3.40;;;;;;;18.82;44.01;98468.11;236420;1193;138663;-63
2021/10/20 17:51:28;;;;;;;4.70;3.10;;;;;;;18.80;44.06;98471.33;236564;1193;138261;-61
2021/10/20 17:56:31;;;;;;;9.30;3.60;;;;;;;18.79;44.02;98482.45;236064;1193;140034;-61
2021/10/20 18:01:34;;;;;;;7.70;3.20;;;;;;;18.73;44.21;98474.80;236693;1193;138810;-60
2021/10/20 18:06:40;;;;;;;7.90;3.40;;;;;;;18.66;44.13;98473.68;236165;1192;138879;-61
2021/10/20 18:11:43;;;;;;;8.60;3.50;;;;;;;18.61;43.70;98471.57;236326;1193;138190;-58
2021/10/20 18:16:47;;;;;;;11.90;4.50;;;;;;;18.53;43.81;98473.30;236720;1193;138456;-63
2021/10/20 18:21:50;;;;;;;12.40;5.00;;;;;;;18.43;44.26;98467.11;236815;1193;138585;-61
2021/10/20 18:26:53;;;;;;;10.90;4.20;;;;;;;18.29;44.63;98465.17;236273;1193;139516;-61
2021/10/20 18:31:56;;;;;;;8.20;3.80;;;;;;;18.18;44.71;98464.39;236730;1193;139425;-60
2021/10/20 18:37:01;;;;;;;6.60;3.60;;;;;;;18.14;44.50;98459.48;236421;1193;138391;-62
2021/10/20 18:42:04;;;;;;;15.90;4.60;;;;;;;18.14;44.33;98463.02;236623;1192;139010;-61
2021/10/20 18:47:08;;;;;;;12.60;4.60;;;;;;;18.11;44.78;98456.60;236820;1193;138522;-64
2021/10/20 18:52:11;;;;;;;16.00;4.80;;;;;;;17.96;45.06;98454.89;236110;1193;138718;-62
2021/10/20 18:57:18;;;;;;;9.80;4.20;;;;;;;17.78;45.25;98455.29;236595;1193;138890;-67
2021/10/20 19:02:21;;;;;;;15.90;4.70;;;;;;;17.58;45.59;98453.10;236657;1193;138527;-63
2021/10/20 19:07:24;;;;;;;10.80;5.40;;;;;;;17.40;45.95;98442.34;236548;1193;138744;-61
2021/10/20 19:12:27;;;;;;;13.90;4.30;;;;;;;17.20;46.45;98435.17;236102;1193;138538;-64
2021/10/20 19:17:47;;;;;;;13.70;5.00;;;;;;;16.99;46.64;98435.66;236356;1193;139910;-62
2021/10/20 19:22:53;;;;;;;10.10;5.70;;;;;;;16.85;46.94;98429.56;236590;1193;138344;-61
2021/10/20 19:27:56;;;;;;;14.50;5.70;;;;;;;16.84;47.22;98424.41;235690;1193;139125;-63
2021/10/20 19:32:59;;;;;;;16.90;5.90;;;;;;;16.80;47.51;98412.89;236365;1193;138657;-60
2021/10/20 19:38:04;;;;;;;12.50;4.50;;;;;;;16.66;47.62;98413.05;236628;1193;138576;-61
2021/10/20 19:43:07;;;;;;;11.60;5.50;;;;;;;16.48;47.97;98410.52;236890;1193;138473;-61
2021/10/20 19:48:10;;;;;;;12.30;5.90;;;;;;;16.33;48.58;98422.70;236735;1193;139217;-61
2021/10/20 19:53:13;;;;;;;12.80;5.80;;;;;;;16.17;48.87;98420.89;236243;1193;138401;-61
2021/10/20 19:58:16;;;;;;;11.70;7.10;;;;;;;16.02;49.34;98425.94;236598;1193;138629;-61
2021/10/20 20:03:19;;;;;;;16.80;7.20;;;;;;;15.95;49.59;98426.81;236747;1192;139044;-62
2021/10/20 20:08:23;;;;;;;13.60;7.20;;;;;;;15.94;49.71;98423.86;236636;1193;137945;-63
2021/10/20 20:13:27;;;;;;;15.30;6.40;;;;;;;15.99;49.42;98431.30;236617;1193;138680;-61
2021/10/20 20:18:30;;;;;;;19.30;7.00;;;;;;;16.11;49.17;98426.05;236596;1193;138345;-62
2021/10/20 20:23:33;;;;;;;11.50;6.00;;;;;;;16.20;48.94;98431.98;236198;1193;138396;-63
2021/10/20 20:28:37;;;;;;;12.80;7.10;;;;;;;16.28;48.63;98436.56;236621;1193;138570;-62
2021/10/20 20:33:40;;;;;;;13.30;7.50;;;;;;;16.38;48.59;98436.24;236505;1193;138236;-62
2021/10/20 20:38:43;;;;;;;16.30;7.90;;;;;;;16.41;48.98;98436.07;236430;1193;138823;-63
2021/10/20 20:43:47;;;;;;;15.10;7.80;;;;;;;16.33;49.31;98430.35;236611;1192;138318;-62
2021/10/20 20:48:51;;;;;;;11.30;7.00;;;;;;;16.19;49.48;98418.70;236694;1192;138887;-61
2021/10/20 20:53:54;;;;;;;19.10;8.50;;;;;;;16.03;49.66;98427.73;236055;1193;138977;-62
2021/10/20 20:58:57;;;;;;;15.20;8.10;;;;;;;15.85;49.92;98426.17;236440;1193;138279;-63
2021/10/20 21:04:02;;;;;;;18.20;8.20;;;;;;;15.69;50.38;98409.98;237172;1192;138643;-61
2021/10/20 21:09:05;;;;;;;16.30;8.60;;;;;;;15.53;50.68;98403.02;236579;1193;139397;-61
2021/10/20 21:14:08;;;;;;;18.00;8.60;;;;;;;15.40;51.29;98408.44;236472;1193;138433;-60
2021/10/20 21:19:13;;;;;;;18.20;8.50;;;;;;;15.24;51.15;98405.13;236575;1193;138144;-60
2021/10/20 21:24:16;;;;;;;20.00;8.60;;;;;;;15.10;51.57;98404.08;236336;1193;138894;-60
2021/10/20 21:29:19;;;;;;;19.10;8.10;;;;;;;14.96;51.80;98394.14;236654;1193;140377;-62
2021/10/20 21:34:22;;;;;;;15.80;8.40;;;;;;;14.83;52.02;98393.15;236472;1193;138752;-62
2021/10/20 21:39:25;;;;;;;16.60;9.40;;;;;;;14.73;52.45;98381.20;236248;1193;139681;-63
2021/10/20 21:44:32;;;;;;;16.00;7.90;;;;;;;14.70;52.62;98364.52;236558;1193;138470;-62
2021/10/20 21:49:35;;;;;;;22.10;8.70;;;;;;;14.71;52.93;98347.48;236508;1192;139013;-63
2021/10/20 21:54:39;;;;;;;17.40;8.40;;;;;;;14.69;53.22;98348.52;236137;1193;137858;-62
2021/10/20 21:59:42;;;;;;;22.80;8.90;;;;;;;14.69;53.12;98347.31;236538;1192;139465;-63
2021/10/20 22:04:45;;;;;;;10.40;6.60;;;;;;;14.68;53.26;98338.83;236769;1192;138674;-61
2021/10/20 22:09:48;;;;;;;15.30;7.00;;;;;;;14.78;52.85;98333.36;236245;1193;139304;-62
2021/10/20 22:15:11;;;;;;;16.90;10.40;;;;;;;14.88;52.64;98331.38;236558;1193;138605;-61
2021/10/20 22:20:15;;;;;;;15.70;8.70;;;;;;;14.98;53.09;98323.56;236581;1193;138876;-62
2021/10/20 22:25:21;;;;;;;11.90;7.10;;;;;;;15.05;52.76;98330.09;236605;1193;139540;-60
2021/10/20 22:30:32;;;;;;;13.10;6.90;;;;;;;15.12;52.42;98317.29;236626;1193;138426;-61
2021/10/20 22:35:35;;;;;;;10.60;6.80;;;;;;;15.17;52.00;98296.83;236633;1193;141001;-61
2021/10/20 22:40:39;;;;;;;14.10;7.40;;;;;;;15.20;52.30;98296.86;236628;1193;138261;-65
2021/10/20 22:45:42;;;;;;;14.30;7.20;;;;;;;15.17;52.67;98292.34;236422;1192;138434;-61
2021/10/20 22:50:46;;;;;;;12.70;6.90;;;;;;;15.08;52.90;98299.02;236514;1193;139367;-61
2021/10/20 22:55:49;;;;;;;15.90;7.50;;;;;;;15.01;53.18;98280.45;236152;1193;138645;-62
2021/10/20 23:00:52;;;;;;;13.40;6.20;;;;;;;14.90;52.82;98239.23;236581;1193;138606;-62
2021/10/20 23:05:56;;;;;;;18.00;8.00;;;;;;;14.95;52.91;98233.66;236650;1193;138165;-60
2021/10/20 23:11:01;;;;;;;11.80;6.60;;;;;;;14.90;53.19;98232.50;236566;1193;138952;-62